Time;durP1;ratioP1;P1;durP2;ratioP2;P2;SDS_P1;SDS_P2;PMS_P1;PMS_P2;Temp;Humidity;BMP_temperature;BMP_pressure;BME280_temperature;BME280_humidity;BME280_pressure;Samples;Min_cycle;Max_cycle;Signal;HPM_P1;HPM_P2
2021/12/01 00:00:52;;;;;;;0.05;0.05;;;7.00;99.90;;;;;;5035909;28;20041;-82
2021/12/01 00:03:19;;;;;;;0.10;0.10;;;6.90;99.90;;;;;;5052201;28;20048;-82
2021/12/01 00:05:46;;;;;;;0.10;0.10;;;7.00;99.90;;;;;;5020088;28;20087;-83
2021/12/01 00:08:13;;;;;;;0.10;0.10;;;7.00;99.90;;;;;;5019855;28;20444;-83
2021/12/01 00:10:41;;;;;;;0.10;0.10;;;7.00;99.90;;;;;;5019305;28;20439;-83
2021/12/01 00:13:10;;;;;;;0.10;0.10;;;7.00;99.90;;;;;;5003108;28;20099;-83
2021/12/01 00:15:37;;;;;;;0.10;0.10;;;7.00;99.90;;;;;;5051673;28;20045;-83
2021/12/01 00:18:04;;;;;;;0.10;0.10;;;7.20;99.90;;;;;;5051651;28;20103;-82
2021/12/01 00:20:31;;;;;;;0.10;0.10;;;7.10;99.90;;;;;;5002888;28;20569;-83
2021/12/01 00:22:59;;;;;;;0.10;0.10;;;7.20;99.90;;;;;;5051894;28;20430;-83
2021/12/01 00:25:26;;;;;;;0.10;0.10;;;7.30;99.90;;;;;;5035507;28;20142;-83
2021/12/01 00:27:54;;;;;;;0.10;0.10;;;7.30;99.90;;;;;;5036013;28;20128;-83
2021/12/01 00:30:22;;;;;;;0.08;0.08;;;7.40;99.90;;;;;;5019344;28;20151;-83
2021/12/01 00:32:52;;;;;;;0.00;0.00;;;7.40;99.90;;;;;;5019539;28;20045;-83
2021/12/01 00:35:19;;;;;;;0.00;0.00;;;7.50;99.90;;;;;;5019647;28;20592;-83
2021/12/01 00:37:46;;;;;;;0.10;0.10;;;7.50;99.90;;;;;;5035411;28;20042;-83
2021/12/01 00:40:14;;;;;;;0.00;0.00;;;7.60;99.90;;;;;;5019042;28;20042;-83
2021/12/01 00:42:42;;;;;;;0.03;0.03;;;7.60;99.90;;;;;;5018986;28;20044;-83
2021/12/01 00:45:21;;;;;;;0.08;0.08;;;7.70;99.90;;;;;;5003503;28;20127;-83
2021/12/01 00:47:50;;;;;;;0.05;0.05;;;7.80;99.90;;;;;;5020649;28;20045;-83
2021/12/01 00:50:19;;;;;;;0.08;0.08;;;7.80;99.90;;;;;;5035097;28;20077;-83
2021/12/01 00:52:46;;;;;;;0.10;0.10;;;7.90;99.90;;;;;;5051323;28;20049;-83
2021/12/01 00:55:13;;;;;;;0.10;0.10;;;8.00;99.90;;;;;;5002895;28;20045;-83
2021/12/01 00:57:39;;;;;;;0.35;0.30;;;8.00;99.90;;;;;;5018535;28;20095;-82
2021/12/01 01:00:08;;;;;;;0.10;0.10;;;8.10;99.90;;;;;;5018736;28;20037;-83
2021/12/01 01:02:35;;;;;;;0.10;0.10;;;8.10;99.90;;;;;;5018472;28;20073;-83
2021/12/01 01:05:04;;;;;;;0.10;0.10;;;8.20;99.90;;;;;;5018930;28;20033;-82
2021/12/01 01:07:31;;;;;;;0.10;0.10;;;8.20;99.90;;;;;;5034861;28;20111;-83
2021/12/01 01:10:04;;;;;;;0.52;0.43;;;8.20;99.90;;;;;;5018658;28;20037;-83
2021/12/01 01:18:06;;;;;;;0.05;0.05;;;8.20;99.90;;;;;;5036785;28;20092;-82
2021/12/01 01:20:34;;;;;;;0.10;0.10;;;8.30;99.90;;;;;;5018035;28;20061;-83
2021/12/01 01:23:01;;;;;;;0.10;0.10;;;8.30;99.90;;;;;;5018144;28;20042;-83
2021/12/01 01:25:28;;;;;;;0.08;0.08;;;8.30;99.90;;;;;;5018242;28;20037;-82
2021/12/01 01:27:55;;;;;;;0.00;0.00;;;8.50;99.90;;;;;;5017966;28;20494;-82
2021/12/01 01:30:22;;;;;;;0.10;0.10;;;8.40;99.90;;;;;;5018024;28;20100;-82
2021/12/01 01:32:49;;;;;;;0.10;0.10;;;8.40;99.90;;;;;;5034167;28;20033;-82
2021/12/01 01:35:15;;;;;;;0.10;0.10;;;8.40;99.90;;;;;;5018393;28;20401;-83
2021/12/01 01:37:42;;;;;;;0.10;0.10;;;8.40;99.90;;;;;;5033851;28;20747;-82
2021/12/01 01:40:09;;;;;;;0.00;0.00;;;8.40;99.90;;;;;;5017934;28;20048;-82
2021/12/01 01:42:36;;;;;;;0.00;0.00;;;8.50;99.90;;;;;;5017830;28;20044;-82
2021/12/01 01:45:05;;;;;;;0.10;0.10;;;8.40;99.90;;;;;;5001864;28;20041;-82
2021/12/01 01:47:31;;;;;;;0.03;0.03;;;8.50;99.90;;;;;;5017955;28;20037;-82
2021/12/01 01:52:34;;;;;;;0.30;0.30;;;8.50;99.90;;;;;;5050308;28;20614;-81
2021/12/01 01:55:01;;;;;;;0.00;0.00;;;8.50;99.90;;;;;;5017971;28;20048;-82
2021/12/01 01:57:27;;;;;;;0.00;0.00;;;8.60;99.90;;;;;;5001436;28;20129;-82
2021/12/01 01:59:54;;;;;;;0.00;0.00;;;8.60;99.90;;;;;;5017506;28;20053;-82
2021/12/01 02:02:21;;;;;;;0.00;0.00;;;8.60;99.90;;;;;;5050690;28;20030;-82
2021/12/01 02:04:47;;;;;;;0.00;0.00;;;8.70;99.90;;;;;;5017151;28;20494;-81
2021/12/01 02:07:14;;;;;;;0.10;0.10;;;8.70;99.90;;;;;;5017610;28;20049;-82
2021/12/01 02:09:41;;;;;;;0.05;0.05;;;8.70;99.90;;;;;;5017296;28;20041;-82
2021/12/01 02:12:08;;;;;;;0.00;0.00;;;8.70;99.90;;;;;;5017408;28;20075;-82
2021/12/01 02:14:35;;;;;;;0.08;0.08;;;8.70;99.90;;;;;;5017284;28;20060;-81
2021/12/01 02:17:02;;;;;;;0.10;0.10;;;8.70;99.90;;;;;;5017080;28;20041;-82
2021/12/01 02:19:28;;;;;;;0.10;0.10;;;8.70;99.90;;;;;;5033351;28;20106;-81
2021/12/01 02:21:55;;;;;;;0.10;0.10;;;8.70;99.90;;;;;;5000574;28;20060;-82
2021/12/01 02:24:23;;;;;;;0.10;0.10;;;8.80;99.90;;;;;;5001155;28;20045;-81
2021/12/01 02:26:51;;;;;;;0.00;0.00;;;8.80;99.90;;;;;;5049319;28;20046;-82
2021/12/01 02:29:26;;;;;;;0.08;0.08;;;8.80;99.90;;;;;;5033407;28;20045;-82
2021/12/01 02:31:55;;;;;;;0.10;0.10;;;8.80;99.90;;;;;;5033048;28;20119;-81
2021/12/01 02:34:24;;;;;;;0.00;0.00;;;8.70;99.90;;;;;;5033512;28;20045;-81
2021/12/01 02:36:54;;;;;;;0.00;0.00;;;8.70;99.90;;;;;;5016834;28;20087;-82
2021/12/01 02:39:21;;;;;;;0.00;0.00;;;8.70;99.90;;;;;;5033346;28;20037;-82
2021/12/01 02:41:56;;;;;;;0.10;0.10;;;8.80;99.90;;;;;;5017051;28;20512;-81
2021/12/01 02:44:24;;;;;;;0.00;0.00;;;8.70;99.90;;;;;;5033417;28;20112;-82
2021/12/01 02:46:50;;;;;;;0.10;0.10;;;8.70;99.90;;;;;;5032869;28;20490;-82
2021/12/01 02:49:23;;;;;;;0.00;0.00;;;8.70;99.90;;;;;;5000705;28;20099;-82
2021/12/01 02:51:53;;;;;;;0.10;0.10;;;8.90;99.90;;;;;;5032887;28;20045;-82
2021/12/01 02:54:24;;;;;;;0.03;0.03;;;8.70;99.90;;;;;;5033540;28;20095;-83
2021/12/01 02:56:52;;;;;;;0.00;0.00;;;8.70;99.90;;;;;;5032908;28;20045;-82
2021/12/01 02:59:20;;;;;;;0.00;0.00;;;8.70;99.90;;;;;;5016923;28;20060;-82
2021/12/01 03:01:46;;;;;;;0.00;0.00;;;8.70;99.90;;;;;;5016750;28;20493;-81
2021/12/01 03:04:14;;;;;;;0.00;0.00;;;8.70;99.90;;;;;;5000882;28;20040;-82
2021/12/01 03:06:45;;;;;;;0.00;0.00;;;8.70;99.90;;;;;;5017143;28;20045;-82
2021/12/01 03:09:14;;;;;;;0.03;0.03;;;8.70;99.90;;;;;;5016961;28;20065;-81
2021/12/01 03:11:44;;;;;;;0.10;0.10;;;8.80;99.90;;;;;;5017238;28;20068;-81
2021/12/01 03:14:15;;;;;;;0.00;0.00;;;8.70;99.90;;;;;;5048869;28;20452;-82
2021/12/01 03:16:44;;;;;;;0.00;0.00;;;8.90;99.90;;;;;;5055144;28;20176;-82
2021/12/01 03:19:10;;;;;;;0.03;0.03;;;8.90;99.90;;;;;;5040360;28;20037;-81
2021/12/01 03:21:39;;;;;;;0.00;0.00;;;8.90;99.90;;;;;;5051350;28;20103;-82
2021/12/01 03:24:06;;;;;;;0.00;0.00;;;8.90;99.90;;;;;;5051529;28;20072;-81
2021/12/01 03:26:34;;;;;;;0.00;0.00;;;8.90;99.90;;;;;;5051138;28;20104;-82
2021/12/01 03:29:02;;;;;;;0.10;0.10;;;9.00;99.90;;;;;;5048198;28;20086;-82
2021/12/01 03:31:29;;;;;;;0.00;0.00;;;9.00;99.90;;;;;;5036622;28;20033;-82
2021/12/01 03:33:55;;;;;;;0.00;0.00;;;9.00;99.90;;;;;;5068747;28;20493;-81
2021/12/01 03:36:22;;;;;;;0.10;0.10;;;9.00;99.90;;;;;;5036419;28;20082;-82
2021/12/01 03:38:49;;;;;;;0.00;0.00;;;9.40;99.90;;;;;;5052023;28;20402;-81
2021/12/01 03:41:16;;;;;;;0.00;0.00;;;9.00;99.90;;;;;;5020094;28;20044;-82
2021/12/01 03:43:42;;;;;;;0.10;0.10;;;9.00;99.90;;;;;;5068802;28;20041;-82
2021/12/01 03:46:09;;;;;;;0.00;0.00;;;9.00;99.90;;;;;;5052675;28;20039;-82
2021/12/01 03:48:36;;;;;;;0.00;0.00;;;9.00;99.90;;;;;;5056212;28;20493;-82
2021/12/01 03:51:03;;;;;;;0.00;0.00;;;9.00;99.90;;;;;;5039522;28;20442;-81
2021/12/01 03:53:30;;;;;;;0.00;0.00;;;9.00;99.90;;;;;;5056286;28;20473;-82
2021/12/01 03:55:56;;;;;;;0.00;0.00;;;9.10;99.90;;;;;;5039464;28;20041;-82
2021/12/01 03:58:23;;;;;;;0.00;0.00;;;9.00;99.90;;;;;;5039624;28;20049;-82
2021/12/01 04:00:50;;;;;;;0.00;0.00;;;9.10;99.90;;;;;;5039238;28;20037;-81
2021/12/01 04:03:16;;;;;;;0.00;0.00;;;9.00;99.90;;;;;;5039666;28;20047;-82
2021/12/01 04:05:43;;;;;;;0.00;0.00;;;9.00;99.90;;;;;;5039725;28;20041;-81
2021/12/01 04:08:10;;;;;;;0.00;0.00;;;9.10;99.90;;;;;;5039379;28;20048;-81
2021/12/01 04:10:37;;;;;;;0.10;0.10;;;9.00;99.90;;;;;;5055793;28;20093;-81
2021/12/01 04:13:04;;;;;;;0.00;0.00;;;9.00;99.90;;;;;;5039242;28;20048;-81
2021/12/01 04:15:31;;;;;;;0.05;0.05;;;9.00;99.90;;;;;;5055412;28;20044;-81
2021/12/01 04:17:58;;;;;;;0.00;0.00;;;9.00;99.90;;;;;;5055204;28;20037;-81
2021/12/01 04:20:25;;;;;;;0.00;0.00;;;9.00;99.90;;;;;;5039133;28;20770;-82
2021/12/01 04:22:53;;;;;;;0.10;0.10;;;9.10;99.90;;;;;;5071613;28;20413;-82
2021/12/01 04:25:20;;;;;;;0.00;0.00;;;9.00;99.90;;;;;;5039095;28;20407;-82
2021/12/01 04:27:46;;;;;;;0.00;0.00;;;9.00;99.90;;;;;;5055638;28;20047;-82
2021/12/01 04:30:16;;;;;;;0.00;0.00;;;9.00;99.90;;;;;;5055075;28;20044;-82
2021/12/01 04:32:43;;;;;;;0.10;0.10;;;9.00;99.90;;;;;;5071776;28;20482;-82
2021/12/01 04:35:09;;;;;;;0.00;0.00;;;9.00;99.90;;;;;;5038903;28;20132;-82
2021/12/01 04:37:38;;;;;;;0.00;0.00;;;9.00;99.90;;;;;;5038850;28;20124;-82
2021/12/01 04:40:06;;;;;;;0.10;0.10;;;9.00;99.90;;;;;;5038959;28;20125;-82
2021/12/01 04:42:33;;;;;;;0.10;0.10;;;9.00;99.90;;;;;;5038990;28;20055;-82
2021/12/01 04:45:02;;;;;;;0.10;0.10;;;8.90;99.90;;;;;;5054714;28;20041;-81
2021/12/01 04:47:30;;;;;;;0.00;0.00;;;9.00;99.90;;;;;;5071502;28;20043;-81
2021/12/01 04:49:57;;;;;;;0.00;0.00;;;9.00;99.90;;;;;;5038717;28;20072;-82
2021/12/01 04:52:24;;;;;;;0.00;0.00;;;8.90;99.90;;;;;;5055103;28;20083;-82
2021/12/01 04:54:51;;;;;;;0.10;0.10;;;8.90;99.90;;;;;;5038888;28;20043;-82
2021/12/01 04:57:17;;;;;;;0.00;0.00;;;8.90;99.90;;;;;;5071190;28;20397;-82
2021/12/01 04:59:45;;;;;;;0.00;0.00;;;9.00;99.90;;;;;;5038680;28;20494;-81
2021/12/01 05:02:12;;;;;;;0.00;0.00;;;8.90;99.90;;;;;;5054803;28;20039;-82
2021/12/01 05:04:41;;;;;;;0.00;0.00;;;8.90;99.90;;;;;;5038434;28;20572;-81
2021/12/01 05:07:09;;;;;;;0.10;0.10;;;8.90;99.90;;;;;;5038961;28;20052;-81
2021/12/01 05:09:36;;;;;;;0.00;0.00;;;8.90;99.90;;;;;;5038588;28;20041;-81
2021/12/01 05:12:06;;;;;;;0.10;0.10;;;8.90;99.90;;;;;;5054057;28;20083;-82
2021/12/01 05:14:36;;;;;;;0.00;0.00;;;8.90;99.90;;;;;;5038462;28;20044;-81
2021/12/01 05:17:04;;;;;;;0.00;0.00;;;9.00;99.90;;;;;;5053932;28;20045;-82
2021/12/01 05:19:31;;;;;;;0.00;0.00;;;8.90;99.90;;;;;;5038313;28;20037;-82
2021/12/01 05:21:58;;;;;;;0.10;0.10;;;8.90;99.90;;;;;;5054346;28;20519;-81
2021/12/01 05:24:24;;;;;;;0.00;0.00;;;8.90;99.90;;;;;;5038039;28;20055;-81
2021/12/01 05:26:54;;;;;;;0.00;0.00;;;8.90;99.90;;;;;;5087709;28;20052;-81
2021/12/01 05:29:23;;;;;;;0.10;0.10;;;8.90;99.90;;;;;;5053849;28;20417;-81
2021/12/01 05:31:54;;;;;;;0.00;0.00;;;8.80;99.90;;;;;;5038510;28;20036;-81
2021/12/01 05:34:21;;;;;;;0.05;0.05;;;8.90;99.90;;;;;;5070706;28;20040;-81
2021/12/01 05:36:48;;;;;;;0.10;0.10;;;8.80;99.90;;;;;;5054276;28;20389;-81
2021/12/01 05:39:16;;;;;;;0.00;0.00;;;8.80;99.90;;;;;;5054001;28;20083;-82
2021/12/01 05:41:44;;;;;;;0.08;0.08;;;8.80;99.90;;;;;;5037923;28;20120;-81
2021/12/01 05:44:11;;;;;;;0.00;0.00;;;8.80;99.90;;;;;;5054088;28;20128;-81
2021/12/01 05:46:38;;;;;;;0.00;0.00;;;8.80;99.90;;;;;;5037486;28;20123;-81
2021/12/01 05:49:06;;;;;;;0.00;0.00;;;8.80;99.90;;;;;;5070034;28;20068;-81
2021/12/01 05:51:32;;;;;;;0.00;0.00;;;8.70;99.90;;;;;;5037442;28;20083;-82
2021/12/01 05:54:00;;;;;;;0.10;0.10;;;8.80;99.90;;;;;;5037588;28;20040;-81
2021/12/01 05:56:28;;;;;;;0.00;0.00;;;8.70;99.90;;;;;;5037832;28;20423;-82
2021/12/01 05:58:54;;;;;;;0.10;0.10;;;8.70;99.90;;;;;;5053651;28;20110;-82
2021/12/01 06:01:21;;;;;;;0.10;0.10;;;8.70;99.90;;;;;;5053373;28;20044;-81
2021/12/01 06:03:48;;;;;;;0.00;0.00;;;8.70;99.90;;;;;;5037348;28;20033;-81
2021/12/01 06:06:14;;;;;;;0.00;0.00;;;8.70;99.90;;;;;;5036900;28;20132;-81
2021/12/01 06:08:42;;;;;;;0.00;0.00;;;8.70;99.90;;;;;;5037446;28;20044;-82
2021/12/01 06:11:09;;;;;;;0.00;0.00;;;8.60;99.90;;;;;;5036471;28;20048;-82
2021/12/01 06:13:37;;;;;;;0.10;0.10;;;8.60;99.90;;;;;;5053238;28;20036;-82
2021/12/01 06:16:04;;;;;;;0.00;0.00;;;8.60;99.90;;;;;;5037243;28;20040;-82
2021/12/01 06:18:31;;;;;;;0.10;0.10;;;8.60;99.90;;;;;;5036816;28;20045;-82
2021/12/01 06:20:58;;;;;;;0.00;0.00;;;8.60;99.90;;;;;;5036871;28;20056;-82
2021/12/01 06:23:25;;;;;;;0.00;0.00;;;8.60;99.90;;;;;;5069355;28;20056;-82
2021/12/01 06:25:51;;;;;;;0.10;0.10;;;8.50;99.90;;;;;;5034022;28;20040;-82
2021/12/01 06:28:18;;;;;;;0.10;0.10;;;8.50;99.90;;;;;;5052836;28;20041;-81
2021/12/01 06:30:45;;;;;;;0.00;0.00;;;8.50;99.90;;;;;;5001583;28;20049;-82
2021/12/01 06:33:12;;;;;;;0.00;0.00;;;8.50;99.90;;;;;;5032956;28;20224;-82
2021/12/01 06:35:38;;;;;;;0.00;0.00;;;8.60;99.90;;;;;;5018474;28;20042;-82
2021/12/01 06:38:05;;;;;;;0.10;0.10;;;8.40;99.90;;;;;;5002804;28;20466;-82
2021/12/01 06:40:32;;;;;;;0.00;0.00;;;8.50;99.90;;;;;;5017008;28;20575;-81
2021/12/01 06:43:00;;;;;;;0.00;0.00;;;8.50;99.90;;;;;;5017042;28;20120;-82
2021/12/01 06:45:27;;;;;;;0.10;0.10;;;8.50;99.90;;;;;;5032816;28;20037;-82
2021/12/01 06:47:53;;;;;;;0.00;0.00;;;8.40;99.90;;;;;;5038367;28;20099;-82
2021/12/01 06:50:20;;;;;;;0.00;0.00;;;8.40;99.90;;;;;;5000611;28;20091;-81
2021/12/01 06:52:47;;;;;;;0.00;0.00;;;8.90;99.90;;;;;;5051145;28;20033;-81
2021/12/01 06:55:14;;;;;;;0.10;0.10;;;8.30;99.90;;;;;;5052555;28;20041;-81
2021/12/01 06:57:40;;;;;;;0.08;0.08;;;8.40;99.90;;;;;;5038540;28;20038;-82
2021/12/01 07:00:11;;;;;;;0.10;0.10;;;8.30;99.90;;;;;;5035521;28;20065;-82
2021/12/01 07:02:38;;;;;;;0.10;0.10;;;8.30;99.90;;;;;;5069762;28;20033;-81
2021/12/01 07:05:06;;;;;;;0.05;0.05;;;8.40;99.90;;;;;;5056848;28;20044;-82
2021/12/01 07:07:33;;;;;;;0.00;0.00;;;8.30;99.90;;;;;;5052462;28;20048;-82
2021/12/01 07:10:00;;;;;;;0.00;0.00;;;8.30;99.90;;;;;;5036400;28;20055;-81
2021/12/01 07:12:27;;;;;;;0.10;0.10;;;8.30;99.90;;;;;;5052402;28;20067;-82
2021/12/01 07:14:54;;;;;;;0.10;0.10;;;8.30;99.90;;;;;;5052541;28;20045;-82
2021/12/01 07:17:21;;;;;;;0.00;0.00;;;8.30;99.90;;;;;;5052243;28;20072;-81
2021/12/01 07:19:48;;;;;;;0.10;0.10;;;8.30;99.90;;;;;;5023036;28;20117;-82
2021/12/01 07:22:16;;;;;;;0.00;0.00;;;8.30;99.90;;;;;;5023185;28;20141;-81
2021/12/01 07:24:44;;;;;;;0.10;0.10;;;8.30;99.90;;;;;;5033187;28;20045;-82
2021/12/01 07:27:11;;;;;;;0.10;0.10;;;8.30;99.90;;;;;;5056452;28;20141;-81
2021/12/01 07:29:38;;;;;;;0.10;0.10;;;8.20;99.90;;;;;;5011686;28;20514;-82
2021/12/01 07:32:05;;;;;;;0.10;0.10;;;8.20;99.90;;;;;;5043741;28;20424;-82
2021/12/01 07:34:40;;;;;;;0.00;0.00;;;8.30;99.90;;;;;;5004183;28;20078;-82
2021/12/01 07:37:09;;;;;;;0.10;0.10;;;8.20;99.90;;;;;;5046786;28;20045;-81
2021/12/01 07:39:35;;;;;;;0.00;0.00;;;8.20;99.90;;;;;;5055109;28;20041;-81
2021/12/01 07:42:03;;;;;;;0.05;0.05;;;8.20;99.90;;;;;;5042699;28;20083;-82
2021/12/01 07:44:30;;;;;;;0.10;0.10;;;8.20;99.90;;;;;;5033701;28;20036;-82
2021/12/01 07:46:57;;;;;;;0.10;0.10;;;8.20;99.90;;;;;;5055439;28;20033;-81
2021/12/01 07:49:24;;;;;;;0.03;0.03;;;8.10;99.90;;;;;;5039375;28;20040;-81
2021/12/01 07:51:51;;;;;;;0.05;0.05;;;8.20;99.90;;;;;;5055647;28;20037;-82
2021/12/01 07:54:19;;;;;;;0.00;0.00;;;8.20;99.90;;;;;;5055260;28;20033;-82
2021/12/01 07:56:47;;;;;;;0.03;0.03;;;8.20;99.90;;;;;;5055697;28;20029;-81
2021/12/01 07:59:17;;;;;;;0.00;0.00;;;8.20;99.90;;;;;;5056052;28;20044;-82
2021/12/01 08:01:44;;;;;;;0.10;0.10;;;8.20;99.90;;;;;;5055735;28;20037;-81
2021/12/01 08:04:12;;;;;;;0.00;0.00;;;8.20;99.90;;;;;;5051542;28;20095;-81
2021/12/01 08:06:40;;;;;;;0.00;0.00;;;8.20;99.90;;;;;;5051607;28;20037;-83
2021/12/01 08:09:07;;;;;;;0.00;0.00;;;8.20;99.90;;;;;;5028428;28;20033;-83
2021/12/01 08:11:34;;;;;;;0.10;0.10;;;8.20;99.90;;;;;;5029889;28;20103;-84
2021/12/01 08:14:01;;;;;;;0.10;0.10;;;8.20;99.90;;;;;;5035485;28;20041;-82
2021/12/01 08:16:28;;;;;;;0.00;0.00;;;8.20;99.90;;;;;;5025542;28;20401;-83
2021/12/01 08:18:55;;;;;;;0.00;0.00;;;8.20;99.90;;;;;;5042910;28;20041;-83
2021/12/01 08:21:24;;;;;;;0.00;0.00;;;8.20;99.90;;;;;;5019340;28;20055;-83
2021/12/01 08:23:52;;;;;;;0.10;0.10;;;8.20;99.90;;;;;;5057691;28;20037;-83
2021/12/01 08:26:20;;;;;;;0.10;0.10;;;8.20;99.90;;;;;;5038180;28;20033;-83
2021/12/01 08:28:48;;;;;;;0.08;0.08;;;8.20;99.90;;;;;;5050973;28;20038;-83
2021/12/01 08:31:16;;;;;;;0.10;0.10;;;8.30;99.90;;;;;;5067470;28;20083;-83
2021/12/01 08:33:44;;;;;;;0.00;0.00;;;8.30;99.90;;;;;;5038341;28;20049;-83
2021/12/01 08:36:11;;;;;;;0.03;0.03;;;8.30;99.90;;;;;;5055055;28;20501;-83
2021/12/01 08:38:39;;;;;;;0.00;0.00;;;8.30;99.90;;;;;;5038465;28;20127;-83
2021/12/01 08:41:07;;;;;;;0.00;0.00;;;8.60;99.90;;;;;;5038727;28;20045;-83
2021/12/01 08:43:34;;;;;;;0.03;0.03;;;8.30;99.90;;;;;;5054653;28;20051;-83
2021/12/01 08:46:02;;;;;;;0.00;0.00;;;8.40;99.90;;;;;;5071256;28;20123;-83
2021/12/01 08:48:30;;;;;;;0.10;0.10;;;8.40;99.90;;;;;;5071375;28;20049;-83
2021/12/01 08:51:01;;;;;;;0.10;0.10;;;8.40;99.90;;;;;;5071588;28;20048;-83
2021/12/01 08:53:33;;;;;;;0.00;0.00;;;8.40;99.90;;;;;;5071030;28;20517;-83
2021/12/01 08:56:01;;;;;;;0.10;0.10;;;8.40;99.90;;;;;;5055594;28;20044;-83
2021/12/01 08:58:29;;;;;;;0.10;0.10;;;8.40;99.90;;;;;;5054663;28;20497;-83
2021/12/01 09:00:56;;;;;;;0.10;0.10;;;8.40;99.90;;;;;;5054911;28;20036;-83
2021/12/01 09:03:24;;;;;;;0.00;0.00;;;8.40;99.90;;;;;;5038755;28;20033;-83
2021/12/01 09:05:52;;;;;;;0.00;0.00;;;8.40;99.90;;;;;;5070631;28;20399;-83
2021/12/01 09:08:22;;;;;;;0.00;0.00;;;8.40;99.90;;;;;;5055263;28;20041;-83
2021/12/01 09:10:52;;;;;;;0.10;0.10;;;8.40;99.90;;;;;;5054089;28;20052;-83
2021/12/01 09:13:24;;;;;;;0.08;0.08;;;8.50;99.90;;;;;;5071204;28;20037;-83
2021/12/01 09:15:53;;;;;;;0.10;0.10;;;8.50;99.90;;;;;;5070730;28;20123;-83
2021/12/01 09:18:20;;;;;;;0.10;0.10;;;8.60;99.90;;;;;;5070744;28;20049;-83
2021/12/01 09:20:47;;;;;;;0.00;0.00;;;8.60;99.90;;;;;;5053920;28;20738;-82
2021/12/01 09:23:14;;;;;;;0.08;0.08;;;8.50;99.90;;;;;;5054597;28;20124;-83
2021/12/01 09:25:42;;;;;;;0.08;0.08;;;8.60;99.90;;;;;;5037634;28;20537;-83
2021/12/01 09:28:09;;;;;;;0.05;0.05;;;8.60;99.90;;;;;;5054395;28;20043;-83
2021/12/01 09:30:36;;;;;;;0.10;0.10;;;9.30;99.90;;;;;;5037488;28;20040;-83
2021/12/01 09:33:03;;;;;;;0.10;0.10;;;8.60;99.90;;;;;;5037922;28;20047;-83
2021/12/01 09:35:29;;;;;;;0.00;0.00;;;8.60;99.90;;;;;;5037659;28;20051;-83
2021/12/01 09:37:56;;;;;;;0.00;0.00;;;8.50;99.90;;;;;;5037519;28;20128;-83
2021/12/01 09:40:23;;;;;;;0.00;0.00;;;8.50;99.90;;;;;;5037874;28;20033;-83
2021/12/01 09:42:54;;;;;;;0.08;0.08;;;8.60;99.90;;;;;;5053588;28;20039;-83
2021/12/01 09:45:23;;;;;;;0.00;0.00;;;8.50;99.90;;;;;;5069574;28;20041;-83
2021/12/01 09:47:51;;;;;;;0.10;0.10;;;8.50;99.90;;;;;;5070123;28;20128;-83
2021/12/01 09:50:19;;;;;;;0.10;0.10;;;8.80;99.90;;;;;;5054153;28;20037;-83
2021/12/01 09:52:46;;;;;;;0.10;0.10;;;8.50;99.90;;;;;;5053444;28;20044;-83
2021/12/01 09:55:16;;;;;;;0.00;0.00;;;8.40;99.90;;;;;;5037328;28;20045;-84
2021/12/01 09:58:04;;;;;;;0.10;0.10;;;8.40;99.90;;;;;;5069811;28;20052;-83
2021/12/01 10:00:33;;;;;;;0.10;0.10;;;8.30;99.90;;;;;;5070247;28;20094;-83
2021/12/01 10:03:00;;;;;;;0.00;0.00;;;8.30;99.90;;;;;;5053427;28;20119;-83
2021/12/01 10:05:46;;;;;;;0.00;0.00;;;8.30;99.90;;;;;;5037487;28;20152;-83
2021/12/01 10:08:34;;;;;;;0.10;0.10;;;8.30;99.90;;;;;;5069864;28;20044;-83
2021/12/01 10:11:22;;;;;;;0.10;0.10;;;8.30;99.90;;;;;;5069840;28;20080;-83
2021/12/01 10:13:55;;;;;;;0.00;0.00;;;8.30;99.90;;;;;;5086364;28;20059;-83
2021/12/01 10:16:24;;;;;;;0.10;0.10;;;8.30;99.90;;;;;;5070107;28;20110;-83
2021/12/01 10:18:57;;;;;;;0.00;0.00;;;8.30;99.90;;;;;;5069393;28;20501;-84
2021/12/01 10:21:32;;;;;;;0.10;0.10;;;8.30;99.90;;;;;;5066290;28;20050;-83
2021/12/01 10:24:19;;;;;;;;;;;8.40;99.90;;;;;;5049937;28;20067;-83
2021/12/01 10:26:53;;;;;;;0.00;0.00;;;8.50;99.90;;;;;;5048907;28;19916;-83
2021/12/01 10:29:22;;;;;;;0.00;0.00;;;8.40;99.90;;;;;;5049911;28;20041;-83
2021/12/01 10:31:59;;;;;;;0.00;0.00;;;8.40;99.90;;;;;;5049583;28;20098;-83
2021/12/01 10:34:43;;;;;;;0.00;0.00;;;8.40;99.90;;;;;;5066289;28;20124;-83
2021/12/01 10:37:18;;;;;;;0.10;0.10;;;8.40;99.90;;;;;;5066240;28;20140;-83
2021/12/01 10:39:48;;;;;;;0.00;0.00;;;8.40;99.90;;;;;;5065873;28;20045;-83
2021/12/01 10:42:16;;;;;;;0.00;0.00;;;8.40;99.90;;;;;;5065996;28;20045;-83
2021/12/01 10:45:04;;;;;;;0.03;0.03;;;8.40;99.90;;;;;;5065749;28;20132;-83
2021/12/01 10:47:40;;;;;;;0.08;0.08;;;8.40;99.90;;;;;;5066280;28;20128;-83
2021/12/01 10:50:13;;;;;;;0.00;0.00;;;8.40;99.90;;;;;;5066231;28;20041;-84
2021/12/01 10:52:44;;;;;;;0.00;0.00;;;8.40;99.90;;;;;;5057990;28;20124;-83
2021/12/01 10:55:24;;;;;;;0.00;0.00;;;8.40;99.90;;;;;;5049247;28;20037;-83
2021/12/01 10:57:57;;;;;;;0.10;0.10;;;8.40;99.90;;;;;;5065443;28;20041;-83
2021/12/01 11:00:30;;;;;;;0.00;0.00;;;8.50;99.90;;;;;;5049216;28;20092;-83
2021/12/01 11:03:19;;;;;;;0.03;0.03;;;8.50;99.90;;;;;;5048805;28;20038;-83
2021/12/01 11:05:48;;;;;;;0.10;0.10;;;8.50;99.90;;;;;;5044496;28;20076;-84
2021/12/01 11:08:17;;;;;;;0.10;0.10;;;8.50;99.90;;;;;;5030013;28;20153;-83
2021/12/01 11:10:55;;;;;;;0.00;0.00;;;8.50;99.90;;;;;;5062231;28;20498;-83
2021/12/01 11:13:24;;;;;;;0.08;0.08;;;8.50;99.90;;;;;;5067760;28;20171;-83
2021/12/01 11:15:54;;;;;;;0.10;0.10;;;8.50;99.90;;;;;;5032754;28;20056;-83
2021/12/01 11:18:25;;;;;;;0.00;0.00;;;8.50;99.90;;;;;;5043358;28;20041;-83
2021/12/01 11:20:54;;;;;;;0.10;0.10;;;8.50;99.90;;;;;;5045890;28;20503;-83
2021/12/01 11:23:33;;;;;;;0.00;0.00;;;8.40;99.90;;;;;;5058307;28;20064;-84
2021/12/01 11:26:06;;;;;;;0.10;0.10;;;8.30;99.90;;;;;;5038866;28;20116;-84
2021/12/01 11:28:38;;;;;;;0.10;0.10;;;8.30;99.90;;;;;;5050906;28;20513;-84
2021/12/01 11:31:14;;;;;;;0.10;0.10;;;8.30;99.90;;;;;;5029302;28;20046;-83
2021/12/01 11:33:44;;;;;;;0.10;0.10;;;8.20;99.90;;;;;;5029403;28;20041;-83
2021/12/01 11:36:19;;;;;;;0.10;0.10;;;8.30;99.90;;;;;;5034605;28;20044;-84
2021/12/01 11:38:51;;;;;;;0.10;0.10;;;8.30;99.90;;;;;;5053080;28;20041;-84
2021/12/01 11:41:19;;;;;;;0.10;0.10;;;8.20;99.90;;;;;;5028913;28;20494;-83
2021/12/01 11:43:47;;;;;;;0.10;0.10;;;8.30;99.90;;;;;;5046305;28;20045;-83
2021/12/01 11:46:14;;;;;;;0.10;0.10;;;8.30;99.90;;;;;;5053709;28;20026;-83
2021/12/01 11:48:48;;;;;;;0.00;0.00;;;8.30;99.90;;;;;;5034129;28;20033;-83
2021/12/01 11:51:17;;;;;;;0.00;0.00;;;8.30;99.90;;;;;;5065457;28;20052;-83
2021/12/01 11:53:52;;;;;;;0.00;0.00;;;8.40;99.90;;;;;;5049378;28;20041;-83
2021/12/01 11:56:25;;;;;;;0.00;0.00;;;8.40;99.90;;;;;;5065551;28;20048;-83
2021/12/01 11:59:13;;;;;;;0.00;0.00;;;8.40;99.90;;;;;;5064848;28;20486;-85
2021/12/01 12:01:43;;;;;;;0.10;0.10;;;8.40;99.90;;;;;;5048858;28;20099;-84
2021/12/01 12:04:12;;;;;;;0.03;0.03;;;8.40;99.90;;;;;;5061590;28;20056;-84
2021/12/01 12:06:52;;;;;;;0.00;0.00;;;8.30;99.90;;;;;;5048730;28;20506;-84
2021/12/01 12:09:22;;;;;;;0.10;0.10;;;8.30;99.90;;;;;;5051657;28;20087;-84
2021/12/01 12:11:52;;;;;;;0.10;0.10;;;8.30;99.90;;;;;;5062366;28;20033;-84
2021/12/01 12:14:27;;;;;;;3.53;1.10;;;8.20;99.90;;;;;;5068658;28;20052;-84
2021/12/01 12:17:18;;;;;;;0.10;0.10;;;8.30;99.90;;;;;;5063185;28;20033;-84
2021/12/01 12:20:02;;;;;;;0.05;0.05;;;8.30;99.90;;;;;;5052243;28;20357;-84
2021/12/01 12:22:49;;;;;;;0.10;0.10;;;8.30;99.90;;;;;;5052112;28;20045;-84
2021/12/01 12:25:35;;;;;;;0.03;0.03;;;8.20;99.90;;;;;;5067847;28;20049;-84
2021/12/01 12:28:20;;;;;;;;;;;8.10;99.90;;;;;;5052243;28;20044;-84
2021/12/01 12:30:47;;;;;;;0.10;0.10;;;8.10;99.90;;;;;;5085059;28;20349;-83
2021/12/01 12:33:21;;;;;;;0.73;0.73;;;8.10;99.90;;;;;;5051883;28;20049;-84
2021/12/01 12:35:55;;;;;;;0.10;0.10;;;8.00;99.90;;;;;;5051717;28;20080;-84
2021/12/01 12:38:21;;;;;;;0.00;0.00;;;8.00;99.90;;;;;;5068334;28;20048;-84
2021/12/01 12:41:07;;;;;;;0.00;0.00;;;8.00;99.90;;;;;;5019307;28;20490;-84
2021/12/01 12:43:36;;;;;;;0.10;0.10;;;7.90;99.90;;;;;;5068362;28;20120;-84
2021/12/01 12:46:18;;;;;;;0.00;0.00;;;8.00;99.90;;;;;;5029931;28;20130;-84
2021/12/01 12:48:50;;;;;;;0.03;0.03;;;7.90;99.90;;;;;;5041690;28;20076;-84
2021/12/01 12:51:32;;;;;;;0.10;0.10;;;7.90;99.90;;;;;;5050888;28;20033;-84
2021/12/01 12:54:10;;;;;;;0.10;0.10;;;7.90;99.90;;;;;;5048160;28;20049;-84
2021/12/01 12:56:49;;;;;;;0.10;0.10;;;7.90;99.90;;;;;;5048260;28;20038;-84
2021/12/01 12:59:32;;;;;;;0.00;0.00;;;7.90;99.90;;;;;;5053600;28;20092;-84
2021/12/01 13:02:07;;;;;;;0.10;0.10;;;7.90;99.90;;;;;;5058285;28;20034;-84
2021/12/01 13:04:58;;;;;;;0.10;0.10;;;7.90;99.90;;;;;;5044362;28;20046;-84
2021/12/01 13:07:35;;;;;;;0.10;0.10;;;7.90;99.90;;;;;;5031742;28;20103;-84
2021/12/01 13:10:24;;;;;;;0.10;0.10;;;7.80;99.90;;;;;;5065365;28;20098;-84
2021/12/01 13:13:02;;;;;;;0.10;0.10;;;7.70;99.90;;;;;;5048617;28;20124;-84
2021/12/01 13:15:30;;;;;;;0.10;0.10;;;7.60;99.90;;;;;;5062519;28;20073;-84
2021/12/01 13:18:00;;;;;;;0.10;0.10;;;7.60;99.90;;;;;;5054220;28;20430;-83